createdAt,value
2023-01-10T00:00:48.758Z,96813.00
2023-01-10T00:03:15.489Z,96806.00
2023-01-10T00:05:42.241Z,96814.00
2023-01-10T00:08:15.223Z,96821.00
2023-01-10T00:10:42.081Z,96820.00
2023-01-10T00:13:25.085Z,96833.00
2023-01-10T00:15:56.148Z,96839.00
2023-01-10T00:18:23.133Z,96846.00
2023-01-10T00:20:50.134Z,96854.00
2023-01-10T00:23:18.370Z,96856.00
2023-01-10T00:25:45.116Z,96865.00
2023-01-10T00:28:20.138Z,96864.00
2023-01-10T00:31:00.988Z,96863.00
2023-01-10T00:33:31.764Z,96873.00
2023-01-10T00:36:04.305Z,96873.00
2023-01-10T00:38:33.251Z,96878.00
2023-01-10T00:41:00.119Z,96885.00
2023-01-10T00:43:45.348Z,96888.00
2023-01-10T00:46:12.518Z,96893.00
2023-01-10T00:48:39.587Z,96899.00
2023-01-10T00:51:06.421Z,96903.00
2023-01-10T00:53:33.269Z,96914.00
2023-01-10T00:56:00.018Z,96914.00
2023-01-10T00:58:26.748Z,96914.00
2023-01-10T01:00:53.515Z,96924.00
2023-01-10T01:03:23.181Z,96924.00
2023-01-10T01:05:50.302Z,96925.00
2023-01-10T01:08:18.654Z,96936.00
2023-01-10T01:10:46.424Z,96938.00
2023-01-10T01:13:19.253Z,96948.00
2023-01-10T01:15:46.360Z,96955.00
2023-01-10T01:18:16.569Z,96954.00
2023-01-10T01:20:45.784Z,96960.00
2023-01-10T01:23:13.660Z,96972.00
2023-01-10T01:25:40.603Z,96983.00
2023-01-10T01:28:08.087Z,96984.00
2023-01-10T01:30:34.822Z,96991.00
2023-01-10T01:33:01.667Z,97004.00
2023-01-10T01:35:28.470Z,97010.00
2023-01-10T01:37:55.572Z,97021.00
2023-01-10T01:40:23.321Z,97032.00
2023-01-10T01:42:55.503Z,97042.00
2023-01-10T01:45:39.274Z,97051.00
2023-01-10T01:48:29.242Z,97050.00
2023-01-10T01:51:05.034Z,97056.00
2023-01-10T01:53:48.677Z,97064.00
2023-01-10T01:56:23.404Z,97069.00
2023-01-10T01:59:28.123Z,97073.00
2023-01-10T02:02:11.132Z,97075.00
2023-01-10T02:05:09.333Z,97069.00
2023-01-10T02:07:39.388Z,97078.00
2023-01-10T02:10:28.647Z,97083.00
2023-01-10T02:13:01.402Z,97076.00
2023-01-10T02:15:29.265Z,97078.00
2023-01-10T02:17:58.268Z,97086.00
2023-01-10T02:20:26.585Z,97085.00
2023-01-10T02:23:14.004Z,97090.00
2023-01-10T02:25:43.362Z,97096.00
2023-01-10T02:28:46.863Z,97103.00
2023-01-10T02:31:58.907Z,97110.00
2023-01-10T02:35:34.072Z,97107.00
2023-01-10T02:38:40.738Z,97124.00
2023-01-10T02:41:47.159Z,97121.00
2023-01-10T02:44:30.337Z,97123.00
2023-01-10T02:46:57.149Z,97132.00
2023-01-10T02:49:24.060Z,97132.00
2023-01-10T02:51:50.824Z,97141.00
2023-01-10T02:54:27.669Z,97137.00
2023-01-10T02:57:28.111Z,97153.00
2023-01-10T03:00:21.957Z,97155.00
2023-01-10T03:03:38.259Z,97158.00
2023-01-10T03:06:26.009Z,97165.00
2023-01-10T03:09:16.945Z,97168.00
2023-01-10T03:11:46.848Z,97172.00
2023-01-10T03:14:22.665Z,97180.00
2023-01-10T03:17:00.369Z,97179.00
2023-01-10T03:19:36.103Z,97189.00
2023-01-10T03:22:04.321Z,97193.00
2023-01-10T03:24:42.552Z,97200.00
2023-01-10T03:27:41.252Z,97206.00
2023-01-10T03:30:48.004Z,97209.00
2023-01-10T03:33:22.970Z,97208.00
2023-01-10T03:36:20.841Z,97217.00
2023-01-10T03:39:06.653Z,97218.00
2023-01-10T03:41:53.262Z,97217.00
2023-01-10T03:44:45.094Z,97211.00
2023-01-10T03:47:41.080Z,97226.00
2023-01-10T03:50:17.729Z,97222.00
2023-01-10T03:52:45.361Z,97237.00
2023-01-10T03:55:15.426Z,97239.00
2023-01-10T03:57:43.156Z,97247.00
2023-01-10T04:00:11.327Z,97246.00
2023-01-10T04:02:38.132Z,97262.00
2023-01-10T04:05:06.129Z,97270.00
2023-01-10T04:07:32.979Z,97267.00
2023-01-10T04:09:59.702Z,97272.00
2023-01-10T04:12:27.523Z,97277.00
2023-01-10T04:14:54.277Z,97277.00
2023-01-10T04:17:21.046Z,97280.00
2023-01-10T04:19:47.791Z,97278.00
2023-01-10T04:22:14.557Z,97277.00
2023-01-10T04:24:41.616Z,97281.00
2023-01-10T04:27:08.355Z,97284.00
2023-01-10T04:29:35.083Z,97294.00
2023-01-10T04:32:01.961Z,97300.00
2023-01-10T04:34:28.806Z,97305.00
2023-01-10T04:36:55.536Z,97307.00
2023-01-10T04:39:22.292Z,97314.00
2023-01-10T04:41:49.804Z,97318.00
2023-01-10T04:44:16.625Z,97326.00
2023-01-10T04:46:43.363Z,97328.00
2023-01-10T04:49:10.568Z,97330.00
2023-01-10T04:51:37.839Z,97340.00
2023-01-10T04:54:04.853Z,97335.00
2023-01-10T04:56:31.649Z,97335.00
2023-01-10T04:58:58.612Z,97347.00
2023-01-10T05:01:26.529Z,97354.00
2023-01-10T05:03:55.715Z,97358.00
2023-01-10T05:06:24.288Z,97364.00
2023-01-10T05:08:51.382Z,97376.00
2023-01-10T05:11:18.137Z,97357.00
2023-01-10T05:13:46.564Z,97374.00
2023-01-10T05:16:14.756Z,97370.00
2023-01-10T05:18:41.699Z,97375.00
2023-01-10T05:21:11.667Z,97380.00
2023-01-10T05:23:39.588Z,97383.00
2023-01-10T05:26:10.246Z,97371.00
2023-01-10T05:28:38.057Z,97381.00
2023-01-10T05:31:08.058Z,97379.00
2023-01-10T05:33:35.269Z,97385.00
2023-01-10T05:36:06.772Z,97392.00
2023-01-10T05:38:33.928Z,97389.00
2023-01-10T05:41:01.275Z,97391.00
2023-01-10T05:43:28.463Z,97398.00
2023-01-10T05:45:55.376Z,97394.00
2023-01-10T05:48:22.180Z,97402.00
2023-01-10T05:50:52.384Z,97397.00
2023-01-10T05:53:19.966Z,97408.00
2023-01-10T05:55:58.587Z,97414.00
2023-01-10T05:58:26.045Z,97408.00
2023-01-10T06:00:55.833Z,97413.00
2023-01-10T06:03:23.270Z,97413.00
2023-01-10T06:05:50.012Z,97421.00
2023-01-10T06:08:17.282Z,97419.00
2023-01-10T06:10:44.209Z,97409.00
2023-01-10T06:13:12.120Z,97409.00
2023-01-10T06:15:39.519Z,97408.00
2023-01-10T06:18:07.111Z,97413.00
2023-01-10T06:20:33.988Z,97413.00
2023-01-10T06:23:04.419Z,97420.00
2023-01-10T06:25:37.554Z,97422.00
2023-01-10T06:28:04.396Z,97427.00
2023-01-10T06:30:31.159Z,97439.00
2023-01-10T06:33:02.759Z,97445.00
2023-01-10T06:35:30.412Z,97457.00
2023-01-10T06:37:57.564Z,97468.00
2023-01-10T06:40:24.536Z,97447.00
2023-01-10T06:42:51.342Z,97448.00
2023-01-10T06:45:18.150Z,97459.00
2023-01-10T06:47:45.151Z,97472.00
2023-01-10T06:50:13.619Z,97476.00
2023-01-10T06:52:41.791Z,97485.00
2023-01-10T06:55:09.272Z,97497.00
2023-01-10T06:57:38.039Z,97497.00
2023-01-10T07:00:09.522Z,97503.00
2023-01-10T07:02:36.983Z,97504.00
2023-01-10T07:05:04.134Z,97509.00
2023-01-10T07:07:30.888Z,97498.00
2023-01-10T07:09:59.632Z,97505.00
2023-01-10T07:12:26.396Z,97512.00
2023-01-10T07:14:53.173Z,97511.00
2023-01-10T07:17:19.936Z,97505.00
2023-01-10T07:19:46.675Z,97512.00
2023-01-10T07:22:13.430Z,97523.00
2023-01-10T07:24:40.165Z,97528.00
2023-01-10T07:27:06.966Z,97524.00
2023-01-10T07:29:33.718Z,97537.00
2023-01-10T07:32:00.521Z,97533.00
2023-01-10T07:34:27.252Z,97522.00
2023-01-10T07:36:54.008Z,97519.00
2023-01-10T07:39:20.830Z,97545.00
2023-01-10T07:41:48.917Z,97552.00
2023-01-10T07:44:16.442Z,97544.00
2023-01-10T07:46:43.209Z,97549.00
2023-01-10T07:49:10.099Z,97559.00
2023-01-10T07:51:36.854Z,97574.00
2023-01-10T07:54:03.985Z,97568.00
2023-01-10T07:56:30.915Z,97575.00
2023-01-10T07:58:57.799Z,97567.00
2023-01-10T08:01:25.986Z,97580.00
2023-01-10T08:03:52.888Z,97575.00
2023-01-10T08:06:19.692Z,97571.00
2023-01-10T08:08:46.426Z,97573.00
2023-01-10T08:11:13.356Z,97576.00
2023-01-10T08:13:40.186Z,97575.00
2023-01-10T08:16:08.891Z,97581.00
2023-01-10T08:18:35.965Z,97584.00
2023-01-10T08:21:02.865Z,97587.00
2023-01-10T08:23:30.085Z,97599.00
2023-01-10T08:25:59.323Z,97589.00
2023-01-10T08:28:26.134Z,97591.00
2023-01-10T08:30:56.032Z,97600.00
2023-01-10T08:33:24.365Z,97602.00
2023-01-10T08:35:51.798Z,97604.00
2023-01-10T08:38:18.630Z,97605.00
2023-01-10T08:40:45.422Z,97607.00
2023-01-10T08:43:13.431Z,97609.00
2023-01-10T08:45:40.604Z,97612.00
2023-01-10T08:48:09.331Z,97610.00
2023-01-10T08:50:36.556Z,97615.00
2023-01-10T08:53:03.492Z,97624.00
2023-01-10T08:55:31.171Z,97620.00
2023-01-10T08:58:02.065Z,97624.00
2023-01-10T09:00:30.075Z,97628.00
2023-01-10T09:02:57.005Z,97643.00
2023-01-10T09:05:28.115Z,97647.00
2023-01-10T09:08:00.168Z,97657.00
2023-01-10T09:10:28.308Z,97658.00
2023-01-10T09:12:55.237Z,97652.00
2023-01-10T09:15:24.290Z,97656.00
2023-01-10T09:17:55.280Z,97666.00
2023-01-10T09:20:23.934Z,97653.00
2023-01-10T09:22:50.800Z,97651.00
2023-01-10T09:25:18.008Z,97659.00
2023-01-10T09:27:44.826Z,97656.00
2023-01-10T09:30:12.317Z,97658.00
2023-01-10T09:32:39.334Z,97659.00
2023-01-10T09:35:06.355Z,97657.00
2023-01-10T09:37:34.593Z,97659.00
2023-01-10T09:40:01.516Z,97667.00
2023-01-10T09:43:04.219Z,97667.00
2023-01-10T09:45:43.819Z,97669.00
2023-01-10T09:48:24.935Z,97656.00
2023-01-10T09:51:16.577Z,97674.00
2023-01-10T09:53:45.159Z,97672.00
2023-01-10T09:56:15.047Z,97679.00
2023-01-10T09:58:43.914Z,97686.00
2023-01-10T10:01:19.979Z,97688.00
2023-01-10T10:04:27.182Z,97676.00
2023-01-10T10:06:55.277Z,97681.00
2023-01-10T10:09:30.366Z,97683.00
2023-01-10T10:12:53.399Z,97687.00
2023-01-10T10:15:49.251Z,97687.00
2023-01-10T10:18:54.930Z,97690.00
2023-01-10T10:21:42.702Z,97680.00
2023-01-10T10:24:39.391Z,97683.00
2023-01-10T10:27:27.427Z,97687.00
2023-01-10T10:30:27.986Z,97681.00
2023-01-10T10:33:18.701Z,97674.00
2023-01-10T10:35:56.758Z,97674.00
2023-01-10T10:38:30.705Z,97670.00
2023-01-10T10:41:00.027Z,97671.00
2023-01-10T10:43:39.100Z,97663.00
2023-01-10T10:46:11.165Z,97657.00
2023-01-10T10:48:53.349Z,97650.00
2023-01-10T10:51:27.887Z,97651.00
2023-01-10T10:53:58.229Z,97656.00
2023-01-10T10:56:26.589Z,97661.00
2023-01-10T10:58:57.036Z,97652.00
2023-01-10T11:01:26.393Z,97656.00
2023-01-10T11:04:00.054Z,97662.00
2023-01-10T11:06:30.157Z,97650.00
2023-01-10T11:09:02.287Z,97660.00
2023-01-10T11:11:34.010Z,97651.00
2023-01-10T11:14:06.555Z,97650.00
2023-01-10T11:16:44.764Z,97653.00
2023-01-10T11:19:29.867Z,97665.00
2023-01-10T11:22:01.769Z,97654.00
2023-01-10T11:24:36.004Z,97656.00
2023-01-10T11:27:15.509Z,97644.00
2023-01-10T11:29:51.916Z,97645.00
2023-01-10T11:32:24.662Z,97644.00
2023-01-10T11:34:59.019Z,97644.00
2023-01-10T11:37:32.749Z,97644.00
2023-01-10T11:40:25.708Z,97640.00
2023-01-10T11:42:56.561Z,97649.00
2023-01-10T11:45:31.825Z,97647.00
2023-01-10T11:48:22.955Z,97646.00
2023-01-10T11:50:55.713Z,97643.00
2023-01-10T11:53:43.083Z,97643.00
2023-01-10T11:56:23.938Z,97646.00
2023-01-10T11:58:50.877Z,97633.00
2023-01-10T12:01:33.191Z,97632.00
2023-01-10T12:04:00.312Z,97621.00
2023-01-10T12:06:28.144Z,97634.00
2023-01-10T12:08:56.282Z,97628.00
2023-01-10T12:11:32.436Z,97627.00
2023-01-10T12:14:01.617Z,97613.00
2023-01-10T12:16:35.180Z,97607.00
2023-01-10T12:19:09.993Z,97605.00
2023-01-10T12:21:41.905Z,97608.00
2023-01-10T12:24:33.931Z,97603.00
2023-01-10T12:27:03.263Z,97595.00
2023-01-10T12:29:36.850Z,97589.00
2023-01-10T12:32:06.636Z,97590.00
2023-01-10T12:34:49.744Z,97583.00
2023-01-10T12:37:23.574Z,97586.00
2023-01-10T12:40:00.787Z,97587.00
2023-01-10T12:43:08.241Z,97585.00
2023-01-10T12:45:51.314Z,97581.00
2023-01-10T12:48:48.304Z,97576.00
2023-01-10T12:51:20.555Z,97577.00
2023-01-10T12:54:16.905Z,97575.00
2023-01-10T12:56:44.951Z,97581.00
2023-01-10T12:59:36.794Z,97574.00
2023-01-10T13:02:19.804Z,97566.00
2023-01-10T13:04:54.706Z,97562.00
2023-01-10T13:07:25.376Z,97573.00
2023-01-10T13:09:52.615Z,97563.00
2023-01-10T13:12:34.100Z,97551.00
2023-01-10T13:15:12.414Z,97549.00
2023-01-10T13:17:45.702Z,97557.00
2023-01-10T13:20:26.778Z,97541.00
2023-01-10T13:23:01.355Z,97546.00
2023-01-10T13:25:39.359Z,97549.00
2023-01-10T13:28:19.755Z,97559.00
2023-01-10T13:30:54.015Z,97545.00
2023-01-10T13:33:49.559Z,97547.00
2023-01-10T13:36:22.919Z,97539.00
2023-01-10T13:38:58.866Z,97536.00
2023-01-10T13:42:16.160Z,97534.00
2023-01-10T13:45:01.294Z,97525.00
2023-01-10T13:47:40.295Z,97522.00
2023-01-10T13:50:34.641Z,97522.00
2023-01-10T13:53:01.322Z,97521.00
2023-01-10T13:55:39.986Z,97516.00
2023-01-10T13:58:09.445Z,97510.00
2023-01-10T14:00:54.832Z,97511.00
2023-01-10T14:03:48.373Z,97503.00
2023-01-10T14:06:20.620Z,97515.00
2023-01-10T14:09:13.483Z,97517.00
2023-01-10T14:11:43.268Z,97522.00
2023-01-10T14:14:39.508Z,97528.00
2023-01-10T14:17:25.981Z,97527.00
2023-01-10T14:20:20.288Z,97528.00
2023-01-10T14:23:16.033Z,97522.00
2023-01-10T14:25:43.987Z,97524.00
2023-01-10T14:28:28.434Z,97522.00
2023-01-10T14:31:13.750Z,97522.00
2023-01-10T14:33:43.643Z,97523.00
2023-01-10T14:36:24.711Z,97512.00
2023-01-10T14:38:57.970Z,97503.00
2023-01-10T14:41:45.765Z,97500.00
2023-01-10T14:44:44.004Z,97493.00
2023-01-10T14:47:35.548Z,97490.00
2023-01-10T14:50:06.102Z,97488.00
2023-01-10T14:52:33.153Z,97493.00
2023-01-10T14:55:06.374Z,97484.00
2023-01-10T14:57:33.225Z,97486.00
2023-01-10T15:00:13.412Z,97483.00
2023-01-10T15:02:48.291Z,97481.00
2023-01-10T15:05:23.436Z,97487.00
2023-01-10T15:07:50.253Z,97476.00
2023-01-10T15:10:31.951Z,97470.00
2023-01-10T15:13:03.361Z,97460.00
2023-01-10T15:15:35.466Z,97459.00
2023-01-10T15:18:11.975Z,97460.00
2023-01-10T15:20:39.818Z,97472.00
2023-01-10T15:23:06.559Z,97456.00
2023-01-10T15:25:40.085Z,97466.00
2023-01-10T15:28:16.253Z,97454.00
2023-01-10T15:30:44.186Z,97457.00
2023-01-10T15:33:29.113Z,97454.00
2023-01-10T15:36:14.758Z,97455.00
2023-01-10T15:38:45.903Z,97446.00
2023-01-10T15:41:20.289Z,97449.00
2023-01-10T15:43:50.031Z,97442.00
2023-01-10T15:46:24.038Z,97438.00
2023-01-10T15:49:01.472Z,97439.00
2023-01-10T15:51:41.535Z,97444.00
2023-01-10T15:54:31.130Z,97437.00
2023-01-10T15:57:07.768Z,97432.00
2023-01-10T15:59:44.585Z,97427.00
2023-01-10T16:02:33.585Z,97435.00
2023-01-10T16:05:17.739Z,97432.00
2023-01-10T16:07:46.686Z,97428.00
2023-01-10T16:10:25.659Z,97419.00
2023-01-10T16:13:11.663Z,97432.00
2023-01-10T16:15:44.264Z,97433.00
2023-01-10T16:18:11.039Z,97428.00
2023-01-10T16:20:45.895Z,97430.00
2023-01-10T16:23:26.227Z,97430.00
2023-01-10T16:25:56.677Z,97431.00
2023-01-10T16:28:24.324Z,97422.00
2023-01-10T16:30:51.120Z,97424.00
2023-01-10T16:33:24.385Z,97413.00
2023-01-10T16:35:54.316Z,97411.00
2023-01-10T16:38:22.699Z,97404.00
2023-01-10T16:40:56.650Z,97407.00
2023-01-10T16:43:25.595Z,97394.00
2023-01-10T16:45:59.976Z,97391.00
2023-01-10T16:48:31.730Z,97386.00
2023-01-10T16:51:16.357Z,97384.00
2023-01-10T16:53:43.112Z,97379.00
2023-01-10T16:56:15.248Z,97398.00
2023-01-10T16:58:42.057Z,97398.00
2023-01-10T17:01:17.437Z,97390.00
2023-01-10T17:03:45.481Z,97391.00
2023-01-10T17:06:13.595Z,97371.00
2023-01-10T17:08:41.387Z,97379.00
2023-01-10T17:11:15.464Z,97384.00
2023-01-10T17:13:45.121Z,97390.00
2023-01-10T17:16:12.080Z,97374.00
2023-01-10T17:18:39.545Z,97377.00
2023-01-10T17:21:11.414Z,97370.00
2023-01-10T17:23:38.163Z,97368.00
2023-01-10T17:26:05.886Z,97379.00
2023-01-10T17:28:32.720Z,97386.00
2023-01-10T17:31:00.188Z,97378.00
2023-01-10T17:33:27.221Z,97370.00
2023-01-10T17:35:56.323Z,97361.00
2023-01-10T17:38:25.786Z,97367.00
2023-01-10T17:40:53.249Z,97369.00
2023-01-10T17:43:21.956Z,97364.00
2023-01-10T17:45:52.151Z,97365.00
2023-01-10T17:48:20.114Z,97368.00
2023-01-10T17:50:48.867Z,97359.00
2023-01-10T17:53:17.861Z,97361.00
2023-01-10T17:55:48.968Z,97367.00
2023-01-10T17:58:17.733Z,97361.00
2023-01-10T18:00:45.903Z,97352.00
2023-01-10T18:03:12.998Z,97364.00
2023-01-10T18:05:40.011Z,97365.00
2023-01-10T18:08:07.966Z,97360.00
2023-01-10T18:10:34.875Z,97363.00
2023-01-10T18:13:03.459Z,97352.00
2023-01-10T18:15:30.506Z,97350.00
2023-01-10T18:17:57.852Z,97349.00
2023-01-10T18:20:24.741Z,97342.00
2023-01-10T18:23:09.966Z,97340.00
2023-01-10T18:25:36.729Z,97339.00
2023-01-10T18:28:03.513Z,97337.00
2023-01-10T18:30:30.276Z,97335.00
2023-01-10T18:32:57.064Z,97336.00
2023-01-10T18:35:23.962Z,97336.00
2023-01-10T18:37:50.695Z,97338.00
2023-01-10T18:40:17.784Z,97338.00
2023-01-10T18:42:44.612Z,97342.00
2023-01-10T18:45:11.410Z,97341.00
2023-01-10T18:47:38.128Z,97335.00
2023-01-10T18:50:05.392Z,97332.00
2023-01-10T18:52:32.156Z,97328.00
2023-01-10T18:55:01.433Z,97328.00
2023-01-10T18:57:32.395Z,97322.00
2023-01-10T18:59:59.132Z,97322.00
2023-01-10T19:02:25.934Z,97312.00
2023-01-10T19:04:52.756Z,97309.00
2023-01-10T19:07:19.504Z,97308.00
2023-01-10T19:09:46.229Z,97310.00
2023-01-10T19:12:13.085Z,97308.00
2023-01-10T19:14:39.825Z,97303.00
2023-01-10T19:17:07.085Z,97312.00
2023-01-10T19:19:34.070Z,97309.00
2023-01-10T19:22:00.838Z,97305.00
2023-01-10T19:24:29.791Z,97294.00
2023-01-10T19:26:56.926Z,97291.00
2023-01-10T19:29:24.145Z,97289.00
2023-01-10T19:31:52.466Z,97295.00
2023-01-10T19:34:19.302Z,97282.00
2023-01-10T19:36:46.186Z,97280.00
2023-01-10T19:39:14.367Z,97284.00
2023-01-10T19:41:41.978Z,97282.00
2023-01-10T19:44:15.757Z,97279.00
2023-01-10T19:46:44.091Z,97268.00
2023-01-10T19:49:17.397Z,97276.00
2023-01-10T19:51:49.241Z,97272.00
2023-01-10T19:54:16.007Z,97272.00
2023-01-10T19:56:42.871Z,97266.00
2023-01-10T19:59:10.002Z,97256.00
2023-01-10T20:01:36.782Z,97248.00
2023-01-10T20:04:06.382Z,97269.00
2023-01-10T20:06:37.600Z,97265.00
2023-01-10T20:09:05.482Z,97264.00
2023-01-10T20:11:42.676Z,97263.00
2023-01-10T20:14:15.289Z,97261.00
2023-01-10T20:16:42.788Z,97264.00
2023-01-10T20:19:12.183Z,97265.00
2023-01-10T20:21:41.214Z,97253.00
2023-01-10T20:24:19.157Z,97265.00
2023-01-10T20:26:48.954Z,97266.00
2023-01-10T20:29:16.491Z,97259.00
2023-01-10T20:31:46.453Z,97248.00
2023-01-10T20:34:13.295Z,97263.00
2023-01-10T20:36:40.028Z,97256.00
2023-01-10T20:39:06.978Z,97258.00
2023-01-10T20:41:33.757Z,97268.00
2023-01-10T20:44:00.662Z,97263.00
2023-01-10T20:46:33.915Z,97252.00
2023-01-10T20:49:02.832Z,97245.00
2023-01-10T20:51:33.225Z,97241.00
2023-01-10T20:54:00.336Z,97253.00
2023-01-10T20:56:30.412Z,97245.00
2023-01-10T20:58:57.523Z,97242.00
2023-01-10T21:01:34.717Z,97242.00
2023-01-10T21:04:06.738Z,97247.00
2023-01-10T21:06:35.257Z,97253.00
2023-01-10T21:09:02.757Z,97246.00
2023-01-10T21:11:29.508Z,97258.00
2023-01-10T21:13:56.675Z,97266.00
2023-01-10T21:16:24.027Z,97256.00
2023-01-10T21:18:51.716Z,97263.00
2023-01-10T21:21:22.354Z,97256.00
2023-01-10T21:23:49.273Z,97254.00
2023-01-10T21:26:16.470Z,97244.00
2023-01-10T21:28:47.163Z,97262.00
2023-01-10T21:31:20.016Z,97266.00
2023-01-10T21:33:47.890Z,97262.00
2023-01-10T21:36:14.777Z,97270.00
2023-01-10T21:38:41.764Z,97259.00
2023-01-10T21:41:14.235Z,97263.00
2023-01-10T21:43:45.222Z,97267.00
2023-01-10T21:46:12.155Z,97260.00
2023-01-10T21:48:39.016Z,97263.00
2023-01-10T21:51:05.862Z,97255.00
2023-01-10T21:53:32.677Z,97237.00
2023-01-10T21:55:59.926Z,97243.00
2023-01-10T21:58:27.416Z,97244.00
2023-01-10T22:00:57.263Z,97246.00
2023-01-10T22:03:24.257Z,97245.00
2023-01-10T22:05:51.051Z,97252.00
2023-01-10T22:08:17.810Z,97242.00
2023-01-10T22:10:44.673Z,97248.00
2023-01-10T22:13:11.437Z,97248.00
2023-01-10T22:15:40.917Z,97255.00
2023-01-10T22:18:08.535Z,97252.00
2023-01-10T22:20:35.490Z,97235.00
2023-01-10T22:23:02.250Z,97246.00
2023-01-10T22:25:29.017Z,97237.00
2023-01-10T22:27:55.745Z,97240.00
2023-01-10T22:30:22.706Z,97228.00
2023-01-10T22:32:49.445Z,97248.00
2023-01-10T22:35:16.341Z,97237.00
2023-01-10T22:37:43.074Z,97239.00
2023-01-10T22:40:12.585Z,97230.00
2023-01-10T22:42:39.342Z,97237.00
2023-01-10T22:45:06.793Z,97235.00
2023-01-10T22:47:33.527Z,97237.00
2023-01-10T22:50:00.278Z,97235.00
2023-01-10T22:52:27.022Z,97232.00
2023-01-10T22:54:53.765Z,97221.00
2023-01-10T22:57:20.500Z,97232.00
2023-01-10T22:59:47.251Z,97227.00
2023-01-10T23:02:14.095Z,97224.00
2023-01-10T23:04:40.879Z,97225.00
2023-01-10T23:07:07.630Z,97223.00
2023-01-10T23:09:34.414Z,97227.00
2023-01-10T23:12:01.174Z,97224.00
2023-01-10T23:14:27.981Z,97217.00
2023-01-10T23:16:55.296Z,97217.00
2023-01-10T23:19:22.080Z,97217.00
2023-01-10T23:21:48.804Z,97210.00
2023-01-10T23:24:16.592Z,97205.00
2023-01-10T23:26:43.355Z,97208.00
2023-01-10T23:29:10.096Z,97212.00
2023-01-10T23:31:36.883Z,97202.00
2023-01-10T23:34:04.010Z,97203.00
2023-01-10T23:36:30.740Z,97197.00
2023-01-10T23:38:57.574Z,97211.00
2023-01-10T23:41:24.368Z,97201.00
2023-01-10T23:43:51.400Z,97195.00
2023-01-10T23:46:18.653Z,97194.00
2023-01-10T23:48:46.420Z,97196.00
2023-01-10T23:51:13.642Z,97197.00
2023-01-10T23:53:41.075Z,97192.00
2023-01-10T23:56:14.267Z,97195.00
2023-01-10T23:58:41.467Z,97190.00
